createdAt,value
2019-01-24T00:04:34.122Z,98702.50
2019-01-24T00:09:52.967Z,98707.30
2019-01-24T00:15:12.059Z,98710.50
2019-01-24T00:20:30.725Z,98721.59
2019-01-24T00:25:49.374Z,98730.41
2019-01-24T00:31:08.083Z,98736.83
2019-01-24T00:36:26.742Z,98740.02
2019-01-24T00:41:45.413Z,98752.56
2019-01-24T00:47:04.296Z,98753.80
2019-01-24T00:52:23.768Z,98749.31
2019-01-24T00:57:42.446Z,98748.48
2019-01-24T01:03:01.934Z,98754.14
2019-01-24T01:08:20.671Z,98762.89
2019-01-24T01:13:39.618Z,98764.95
2019-01-24T01:18:59.970Z,98774.18
2019-01-24T01:24:18.676Z,98782.93
2019-01-24T01:29:37.344Z,98781.36
2019-01-24T01:34:56.015Z,98787.64
2019-01-24T01:40:19.655Z,98791.27
2019-01-24T01:45:38.289Z,98794.61
2019-01-24T01:50:56.860Z,98797.45
2019-01-24T01:56:15.620Z,98804.14
2019-01-24T02:01:35.429Z,98810.85
2019-01-24T02:06:54.293Z,98810.85
2019-01-24T02:12:13.976Z,98813.44
2019-01-24T02:17:34.225Z,98823.23
2019-01-24T02:22:54.367Z,98823.11
2019-01-24T02:28:13.921Z,98818.41
2019-01-24T02:33:32.578Z,98820.37
2019-01-24T02:38:51.249Z,98823.23
2019-01-24T02:44:10.495Z,98829.12
2019-01-24T02:49:29.324Z,98831.17
2019-01-24T02:54:48.038Z,98829.05
2019-01-24T03:00:09.586Z,98824.34
2019-01-24T03:05:28.245Z,98837.91
2019-01-24T03:10:47.412Z,98835.87
2019-01-24T03:16:06.055Z,98843.49
2019-01-24T03:21:24.754Z,98846.16
2019-01-24T03:26:43.307Z,98845.14
2019-01-24T03:32:01.990Z,98840.36
2019-01-24T03:37:20.663Z,98837.69
2019-01-24T03:42:39.238Z,98840.55
2019-01-24T03:47:57.805Z,98843.91
2019-01-24T03:53:16.555Z,98843.02
2019-01-24T03:58:35.160Z,98850.59
2019-01-24T04:03:54.153Z,98844.31
2019-01-24T04:09:12.868Z,98847.61
2019-01-24T04:14:31.749Z,98847.49
2019-01-24T04:19:51.514Z,98854.52
2019-01-24T04:25:10.226Z,98857.31
2019-01-24T04:30:29.479Z,98857.93
2019-01-24T04:35:48.136Z,98861.97
2019-01-24T04:41:07.509Z,98871.19
2019-01-24T04:46:26.190Z,98882.42
2019-01-24T04:51:44.860Z,98876.49
2019-01-24T04:57:03.542Z,98880.66
2019-01-24T05:02:22.095Z,98900.19
2019-01-24T05:07:40.755Z,98903.34
2019-01-24T05:12:59.458Z,98906.94
2019-01-24T05:18:18.121Z,98913.14
2019-01-24T05:23:36.834Z,98921.41
2019-01-24T05:28:55.547Z,98922.13
2019-01-24T05:34:18.663Z,98925.36
2019-01-24T05:39:37.577Z,98939.30
2019-01-24T05:44:56.144Z,98942.83
2019-01-24T05:50:14.799Z,98944.70
2019-01-24T05:55:33.474Z,98945.62
2019-01-24T06:00:52.160Z,98943.67
2019-01-24T06:06:10.817Z,98949.11
2019-01-24T06:11:29.464Z,98942.41
2019-01-24T06:16:48.228Z,98937.83
2019-01-24T06:22:07.002Z,98940.16
2019-01-24T06:27:25.671Z,98934.67
2019-01-24T06:32:44.315Z,98947.16
2019-01-24T06:38:02.950Z,98948.06
2019-01-24T06:43:21.521Z,98955.68
2019-01-24T06:48:40.229Z,98964.18
2019-01-24T06:54:02.460Z,98972.77
2019-01-24T06:59:21.034Z,98978.59
2019-01-24T07:04:39.719Z,98990.41
2019-01-24T07:09:58.365Z,98993.77
2019-01-24T07:15:19.245Z,99012.08
2019-01-24T07:20:38.114Z,99004.65
2019-01-24T07:25:56.772Z,99021.92
2019-01-24T07:31:16.189Z,99025.02
2019-01-24T07:36:34.854Z,99035.94
2019-01-24T07:41:53.523Z,99035.77
2019-01-24T07:47:12.261Z,99045.86
2019-01-24T07:52:30.943Z,99054.67
2019-01-24T07:57:49.568Z,99072.01
2019-01-24T08:03:08.339Z,99070.30
2019-01-24T08:08:28.012Z,99070.81
2019-01-24T08:13:46.731Z,99076.58
2019-01-24T08:19:05.540Z,99083.58
2019-01-24T08:24:24.268Z,99083.59
2019-01-24T08:29:44.457Z,99092.44
2019-01-24T08:35:04.474Z,99100.94
2019-01-24T08:40:24.326Z,99097.83
2019-01-24T08:45:43.137Z,99110.01
2019-01-24T08:51:01.945Z,99122.70
2019-01-24T08:56:20.507Z,99124.52
2019-01-24T09:01:42.355Z,99125.89
2019-01-24T09:07:01.188Z,99123.91
2019-01-24T09:12:20.586Z,99125.89
2019-01-24T09:17:40.911Z,99128.27
2019-01-24T09:22:59.558Z,99122.50
2019-01-24T09:28:18.274Z,99126.33
2019-01-24T09:33:36.939Z,99125.54
2019-01-24T09:38:55.863Z,99132.02
2019-01-24T09:44:15.085Z,99138.83
2019-01-24T09:49:33.785Z,99126.89
2019-01-24T09:54:52.379Z,99126.98
2019-01-24T10:00:16.517Z,99125.98
2019-01-24T10:05:37.992Z,99135.67
2019-01-24T10:10:59.597Z,99141.09
2019-01-24T10:16:18.362Z,99140.73
2019-01-24T10:21:37.423Z,99141.22
2019-01-24T10:26:56.585Z,99149.98
2019-01-24T10:32:16.310Z,99151.19
2019-01-24T10:37:35.259Z,99157.39
2019-01-24T10:42:55.189Z,99161.30
2019-01-24T10:48:13.857Z,99161.30
2019-01-24T10:53:34.313Z,99156.91
2019-01-24T10:58:52.966Z,99157.58
2019-01-24T11:04:11.563Z,99156.38
2019-01-24T11:09:30.410Z,99145.24
2019-01-24T11:14:49.065Z,99163.08
2019-01-24T11:20:10.617Z,99165.84
2019-01-24T11:25:29.309Z,99162.95
2019-01-24T11:30:47.991Z,99165.47
2019-01-24T11:36:06.663Z,99167.51
2019-01-24T11:41:25.368Z,99157.23
2019-01-24T11:46:46.932Z,99164.66
2019-01-24T11:52:05.854Z,99170.35
2019-01-24T11:57:24.556Z,99175.97
2019-01-24T12:02:43.346Z,99162.25
2019-01-24T12:08:02.123Z,99173.50
2019-01-24T12:13:21.765Z,99164.69
2019-01-24T12:18:42.620Z,99174.52
2019-01-24T12:24:01.238Z,99162.09
2019-01-24T12:29:19.881Z,99170.55
2019-01-24T12:34:38.511Z,99173.50
2019-01-24T12:39:57.259Z,99174.33
2019-01-24T12:45:24.315Z,99169.13
2019-01-24T12:50:42.989Z,99172.14
2019-01-24T12:56:01.701Z,99163.10
2019-01-24T13:01:20.473Z,99164.02
2019-01-24T13:06:39.264Z,99169.75
2019-01-24T13:11:57.951Z,99161.43
2019-01-24T13:17:20.350Z,99164.73
2019-01-24T13:22:39.003Z,99153.45
2019-01-24T13:27:57.691Z,99155.98
2019-01-24T13:33:18.023Z,99146.47
2019-01-24T13:38:36.639Z,99154.64
2019-01-24T13:43:57.992Z,99165.03
2019-01-24T13:49:18.056Z,99169.54
2019-01-24T13:54:36.861Z,99179.93
2019-01-24T13:59:55.582Z,99166.13
2019-01-24T14:05:20.338Z,99174.27
2019-01-24T14:10:42.337Z,99176.59
2019-01-24T14:16:01.192Z,99190.65
2019-01-24T14:21:19.979Z,99194.63
2019-01-24T14:26:38.898Z,99202.53
2019-01-24T14:31:57.634Z,99202.05
2019-01-24T14:37:16.675Z,99201.85
2019-01-24T14:42:35.556Z,99206.61
2019-01-24T14:47:54.146Z,99200.23
2019-01-24T14:53:12.948Z,99204.95
2019-01-24T14:58:31.622Z,99204.21
2019-01-24T15:03:52.963Z,99207.23
2019-01-24T15:09:11.716Z,99216.73
2019-01-24T15:14:30.426Z,99222.06
2019-01-24T15:19:49.106Z,99223.00
2019-01-24T15:25:13.506Z,99224.95
2019-01-24T15:30:32.232Z,99230.39
2019-01-24T15:35:51.961Z,99236.17
2019-01-24T15:41:10.596Z,99240.53
2019-01-24T15:46:29.474Z,99243.39
2019-01-24T15:51:48.371Z,99253.24
2019-01-24T15:57:07.365Z,99253.59
2019-01-24T16:02:26.061Z,99269.42
2019-01-24T16:07:48.232Z,99275.73
2019-01-24T16:13:08.619Z,99271.22
2019-01-24T16:18:29.100Z,99269.94
2019-01-24T16:23:58.896Z,99272.62
2019-01-24T16:29:35.575Z,99274.40
2019-01-24T16:34:58.131Z,99279.00
2019-01-24T16:40:26.579Z,99285.80
2019-01-24T16:45:45.383Z,99287.16
2019-01-24T16:51:05.703Z,99298.12
2019-01-24T16:56:25.859Z,99301.44
2019-01-24T17:01:44.721Z,99310.92
2019-01-24T17:07:03.992Z,99310.92
2019-01-24T17:12:22.576Z,99312.64
2019-01-24T17:17:55.486Z,99313.63
2019-01-24T17:23:29.250Z,99324.38
2019-01-24T17:28:52.301Z,99328.98
2019-01-24T17:34:12.881Z,99330.69
2019-01-24T17:39:31.331Z,99331.58
2019-01-24T17:44:49.994Z,99334.11
2019-01-24T17:50:14.332Z,99336.34
2019-01-24T17:55:42.645Z,99331.20
2019-01-24T18:01:02.990Z,99340.53
2019-01-24T18:06:25.701Z,99349.18
2019-01-24T18:12:05.636Z,99349.50
2019-01-24T18:17:34.559Z,99348.20
2019-01-24T18:22:56.518Z,99358.83
2019-01-24T18:28:36.301Z,99370.45
2019-01-24T18:33:55.963Z,99380.17
2019-01-24T18:39:14.698Z,99389.05
2019-01-24T18:44:34.925Z,99400.72
2019-01-24T18:49:53.667Z,99406.02
2019-01-24T18:55:13.410Z,99410.69
2019-01-24T19:00:44.990Z,99416.77
2019-01-24T19:06:03.744Z,99422.89
2019-01-24T19:11:23.799Z,99425.73
2019-01-24T19:16:42.442Z,99431.77
2019-01-24T19:22:01.086Z,99422.31
2019-01-24T19:27:19.839Z,99426.75
2019-01-24T19:32:39.292Z,99423.69
2019-01-24T19:37:58.192Z,99424.38
2019-01-24T19:43:16.825Z,99426.30
2019-01-24T19:48:35.455Z,99437.89
2019-01-24T19:53:54.092Z,99440.45
2019-01-24T19:59:13.137Z,99426.31
2019-01-24T20:04:34.740Z,99434.23
2019-01-24T20:09:53.308Z,99435.66
2019-01-24T20:15:19.007Z,99438.47
2019-01-24T20:20:40.643Z,99434.30
2019-01-24T20:26:03.007Z,99432.84
2019-01-24T20:31:21.654Z,99444.31
2019-01-24T20:36:43.120Z,99442.55
2019-01-24T20:42:02.548Z,99432.90
2019-01-24T20:47:22.805Z,99428.84
2019-01-24T20:52:46.442Z,99433.64
2019-01-24T20:58:06.686Z,99442.84
2019-01-24T21:03:25.343Z,99443.41
2019-01-24T21:08:53.627Z,99442.30
2019-01-24T21:14:08.214Z,99448.56
2019-01-24T21:19:26.883Z,99449.77
2019-01-24T21:24:45.535Z,99448.70
2019-01-24T21:30:22.207Z,99443.59
2019-01-24T21:35:40.899Z,99456.56
2019-01-24T21:41:01.387Z,99454.80
2019-01-24T21:46:20.083Z,99456.03
2019-01-24T21:51:38.796Z,99461.85
2019-01-24T21:56:57.520Z,99465.49
2019-01-24T22:02:16.449Z,99462.43
2019-01-24T22:07:35.094Z,99466.78
2019-01-24T22:12:53.834Z,99457.27
2019-01-24T22:18:12.486Z,99461.46
2019-01-24T22:23:31.028Z,99472.80
2019-01-24T22:28:49.666Z,99473.77
2019-01-24T22:34:08.256Z,99470.50
2019-01-24T22:39:26.920Z,99473.67
2019-01-24T22:44:45.475Z,99466.63
2019-01-24T22:50:06.428Z,99479.59
2019-01-24T22:55:26.373Z,99488.64
2019-01-24T23:00:54.236Z,99488.19
2019-01-24T23:06:14.675Z,99491.96
2019-01-24T23:11:33.593Z,99495.84
2019-01-24T23:16:52.786Z,99499.22
2019-01-24T23:22:11.536Z,99491.08
2019-01-24T23:27:30.614Z,99492.17
2019-01-24T23:32:52.882Z,99483.17
2019-01-24T23:38:11.782Z,99492.10
2019-01-24T23:43:30.489Z,99484.11
2019-01-24T23:48:49.174Z,99495.49
2019-01-24T23:54:07.793Z,99491.14
2019-01-24T23:59:28.089Z,99492.91
